createdAt,value
2022-12-08T00:02:20.803Z,80.07
2022-12-08T00:07:40.864Z,80.59
2022-12-08T00:12:42.454Z,80.94
2022-12-08T00:17:44.054Z,80.53
2022-12-08T00:22:45.594Z,80.23
2022-12-08T00:27:47.121Z,80.38
2022-12-08T00:32:48.677Z,80.86
2022-12-08T00:37:50.267Z,80.91
2022-12-08T00:42:51.822Z,80.87
2022-12-08T00:47:53.370Z,81.40
2022-12-08T00:52:54.944Z,80.92
2022-12-08T00:57:56.524Z,81.52
2022-12-08T01:02:58.117Z,81.20
2022-12-08T01:07:59.758Z,81.62
2022-12-08T01:13:01.344Z,81.77
2022-12-08T01:18:02.983Z,80.58
2022-12-08T01:23:04.677Z,81.05
2022-12-08T01:28:06.254Z,80.10
2022-12-08T01:33:07.816Z,79.66
2022-12-08T01:38:09.374Z,79.54
2022-12-08T01:43:19.627Z,80.25
2022-12-08T01:48:25.994Z,80.08
2022-12-08T01:53:32.919Z,80.42
2022-12-08T01:58:43.592Z,80.37
2022-12-08T02:04:00.842Z,80.40
2022-12-08T02:09:05.439Z,80.62
2022-12-08T02:14:09.588Z,80.73
2022-12-08T02:19:44.886Z,80.04
2022-12-08T02:25:10.318Z,79.84
2022-12-08T02:30:26.226Z,79.42
2022-12-08T02:35:47.982Z,80.11
2022-12-08T02:40:55.518Z,80.39
2022-12-08T02:46:01.883Z,80.70
2022-12-08T02:51:03.561Z,79.60
2022-12-08T02:56:26.800Z,80.50
2022-12-08T03:01:35.739Z,79.98
2022-12-08T03:06:50.986Z,80.29
2022-12-08T03:12:06.231Z,79.49
2022-12-08T03:17:08.744Z,80.19
2022-12-08T03:22:13.308Z,79.78
2022-12-08T03:27:26.933Z,80.23
2022-12-08T03:32:47.969Z,80.04
2022-12-08T03:37:49.568Z,80.26
2022-12-08T03:42:51.132Z,81.06
2022-12-08T03:47:52.824Z,80.93
2022-12-08T03:52:54.417Z,80.47
2022-12-08T03:57:56.006Z,80.43
2022-12-08T04:02:57.635Z,80.77
2022-12-08T04:07:59.345Z,81.50
2022-12-08T04:13:00.934Z,81.68
2022-12-08T04:18:02.482Z,81.82
2022-12-08T04:23:04.035Z,81.96
2022-12-08T04:28:06.309Z,81.88
2022-12-08T04:33:07.851Z,81.91
2022-12-08T04:38:09.443Z,82.00
2022-12-08T04:43:11.158Z,81.85
2022-12-08T04:48:13.397Z,81.95
2022-12-08T04:53:15.424Z,82.07
2022-12-08T04:58:19.329Z,81.91
2022-12-08T05:03:28.120Z,81.67
2022-12-08T05:08:30.707Z,82.35
2022-12-08T05:13:32.773Z,82.13
2022-12-08T05:18:34.968Z,81.95
2022-12-08T05:23:36.754Z,82.54
2022-12-08T05:28:42.942Z,82.01
2022-12-08T05:33:45.778Z,82.53
2022-12-08T05:38:47.653Z,82.43
2022-12-08T05:43:49.447Z,82.43
2022-12-08T05:48:51.061Z,82.25
2022-12-08T05:53:53.257Z,82.41
2022-12-08T05:58:54.842Z,82.11
2022-12-08T06:03:59.883Z,82.74
2022-12-08T06:09:04.078Z,83.00
2022-12-08T06:14:05.655Z,83.14
2022-12-08T06:19:07.334Z,83.37
2022-12-08T06:24:09.004Z,83.66
2022-12-08T06:29:10.996Z,82.38
2022-12-08T06:34:12.542Z,82.47
2022-12-08T06:39:14.088Z,83.60
2022-12-08T06:44:15.669Z,83.09
2022-12-08T06:49:17.730Z,83.35
2022-12-08T06:54:19.285Z,83.34
2022-12-08T06:59:20.890Z,83.90
2022-12-08T07:04:22.459Z,83.35
2022-12-08T07:09:24.028Z,83.05
2022-12-08T07:14:25.640Z,83.93
2022-12-08T07:19:27.205Z,84.42
2022-12-08T07:24:28.775Z,84.55
2022-12-08T07:29:30.318Z,84.55
2022-12-08T07:34:31.904Z,84.21
2022-12-08T07:39:33.458Z,84.30
2022-12-08T07:44:34.993Z,84.64
2022-12-08T07:49:36.558Z,84.44
2022-12-08T07:54:38.120Z,84.69
2022-12-08T07:59:39.723Z,85.60
2022-12-08T08:04:41.370Z,84.84
2022-12-08T08:09:43.097Z,84.60
2022-12-08T08:14:44.761Z,84.23
2022-12-08T08:19:46.608Z,84.43
2022-12-08T08:24:48.213Z,85.21
2022-12-08T08:29:50.120Z,84.84
2022-12-08T08:34:51.943Z,84.09
2022-12-08T08:39:53.728Z,83.63
2022-12-08T08:44:55.322Z,83.75
2022-12-08T08:49:56.856Z,83.71
2022-12-08T08:54:58.416Z,82.90
2022-12-08T08:59:59.987Z,83.33
2022-12-08T09:05:01.722Z,83.15
2022-12-08T09:10:04.206Z,82.17
2022-12-08T09:15:06.687Z,81.62
2022-12-08T09:20:08.585Z,80.40
2022-12-08T09:25:10.189Z,79.62
2022-12-08T09:30:11.852Z,78.47
2022-12-08T09:35:13.770Z,77.53
2022-12-08T09:40:18.781Z,77.12
2022-12-08T09:45:33.328Z,76.24
2022-12-08T09:50:52.594Z,75.51
2022-12-08T09:55:59.131Z,75.82
2022-12-08T10:01:00.921Z,75.59
2022-12-08T10:06:25.254Z,75.89
2022-12-08T10:11:40.877Z,75.30
2022-12-08T10:16:48.438Z,76.34
2022-12-08T10:21:51.208Z,75.43
2022-12-08T10:26:53.982Z,75.77
2022-12-08T10:31:59.710Z,75.51
2022-12-08T10:37:09.937Z,75.54
2022-12-08T10:42:14.473Z,74.94
2022-12-08T10:47:16.345Z,76.04
2022-12-08T10:52:24.978Z,74.64
2022-12-08T10:57:26.556Z,73.89
2022-12-08T11:02:28.258Z,73.21
2022-12-08T11:07:29.900Z,72.72
2022-12-08T11:12:32.262Z,73.35
2022-12-08T11:17:39.631Z,73.64
2022-12-08T11:22:43.501Z,73.65
2022-12-08T11:27:48.361Z,73.02
2022-12-08T11:33:17.891Z,73.28
2022-12-08T11:38:25.918Z,72.01
2022-12-08T11:43:40.857Z,72.43
2022-12-08T11:48:48.604Z,73.15
2022-12-08T11:54:08.658Z,73.63
2022-12-08T11:59:22.855Z,73.76
2022-12-08T12:04:36.103Z,72.95
2022-12-08T12:10:04.069Z,73.40
2022-12-08T12:15:12.743Z,73.43
2022-12-08T12:20:30.351Z,72.62
2022-12-08T12:25:34.344Z,73.24
2022-12-08T12:31:02.285Z,72.58
2022-12-08T12:36:07.945Z,72.47
2022-12-08T12:41:12.151Z,73.23
2022-12-08T12:46:25.738Z,73.77
2022-12-08T12:51:44.221Z,72.85
2022-12-08T12:56:55.137Z,73.06
2022-12-08T13:01:57.396Z,72.71
2022-12-08T13:06:59.758Z,71.83
2022-12-08T13:12:10.465Z,70.91
2022-12-08T13:17:16.289Z,70.00
2022-12-08T13:22:50.548Z,70.74
2022-12-08T13:27:53.993Z,71.07
2022-12-08T13:38:26.434Z,72.10
2022-12-08T13:44:14.252Z,72.31
2022-12-08T13:56:05.519Z,72.49
2022-12-08T14:00:15.410Z,73.03
2022-12-08T14:05:40.686Z,72.71
2022-12-08T14:10:41.925Z,73.10
2022-12-08T14:15:43.521Z,72.88
2022-12-08T14:21:12.595Z,73.04
2022-12-08T14:26:06.968Z,73.94
2022-12-08T14:31:08.811Z,73.57
2022-12-08T14:36:15.777Z,73.79
2022-12-08T14:41:27.090Z,74.29
2022-12-08T14:46:29.174Z,74.12
2022-12-08T14:51:33.136Z,73.97
2022-12-08T14:56:42.233Z,74.06
2022-12-08T15:01:44.704Z,74.19
2022-12-08T15:06:53.918Z,74.68
2022-12-08T15:12:26.777Z,74.53
2022-12-08T15:17:35.911Z,75.21
2022-12-08T15:22:37.449Z,75.17
2022-12-08T15:27:49.853Z,75.48
2022-12-08T15:32:54.294Z,76.08
2022-12-08T15:37:56.031Z,76.05
2022-12-08T15:42:57.678Z,75.39
2022-12-08T15:47:59.278Z,76.46
2022-12-08T15:53:01.456Z,75.75
2022-12-08T15:58:52.492Z,76.96
2022-12-08T16:09:06.370Z,76.60
2022-12-08T16:15:23.076Z,76.36
2022-12-08T16:19:35.198Z,76.64
2022-12-08T16:24:36.750Z,76.40
2022-12-08T16:29:38.607Z,76.19
2022-12-08T16:34:40.412Z,76.07
2022-12-08T16:39:45.772Z,75.84
2022-12-08T16:44:47.743Z,75.87
2022-12-08T16:49:49.306Z,76.45
2022-12-08T16:54:50.882Z,75.97
2022-12-08T16:59:52.443Z,76.02
2022-12-08T17:04:54.032Z,76.12
2022-12-08T17:09:55.676Z,75.68
2022-12-08T17:14:57.232Z,75.15
2022-12-08T17:19:58.832Z,75.78
2022-12-08T17:25:01.038Z,75.73
2022-12-08T17:30:03.106Z,75.85
2022-12-08T17:35:05.884Z,76.32
2022-12-08T17:40:08.532Z,76.04
2022-12-08T17:45:10.888Z,76.34
2022-12-08T17:50:12.441Z,76.56
2022-12-08T17:55:13.992Z,76.62
2022-12-08T18:00:15.892Z,76.35
2022-12-08T18:05:17.591Z,76.18
2022-12-08T18:10:19.931Z,76.46
2022-12-08T18:15:21.833Z,76.84
2022-12-08T18:20:23.572Z,77.51
2022-12-08T18:25:25.169Z,77.64
2022-12-08T18:30:27.024Z,78.59
2022-12-08T18:35:28.883Z,78.10
2022-12-08T18:40:30.448Z,77.93
2022-12-08T18:45:32.529Z,77.14
2022-12-08T18:50:34.424Z,77.93
2022-12-08T18:55:37.756Z,78.35
2022-12-08T19:00:39.296Z,78.05
2022-12-08T19:05:40.958Z,77.69
2022-12-08T19:10:42.556Z,78.15
2022-12-08T19:15:44.174Z,78.21
2022-12-08T19:20:45.847Z,78.25
2022-12-08T19:25:47.415Z,78.48
2022-12-08T19:30:49.132Z,77.96
2022-12-08T19:35:52.902Z,77.92
2022-12-08T19:41:13.181Z,77.80
2022-12-08T19:46:14.909Z,77.38
2022-12-08T19:51:16.643Z,77.76
2022-12-08T19:56:18.222Z,76.91
2022-12-08T20:01:19.884Z,77.57
2022-12-08T20:06:23.262Z,77.29
2022-12-08T20:11:24.831Z,77.76
2022-12-08T20:16:26.510Z,77.35
2022-12-08T20:21:29.105Z,77.39
2022-12-08T20:26:30.851Z,77.75
2022-12-08T20:31:33.602Z,77.90
2022-12-08T20:36:35.310Z,77.15
2022-12-08T20:41:39.279Z,77.19
2022-12-08T20:46:44.956Z,78.03
2022-12-08T20:51:49.917Z,78.22
2022-12-08T20:56:51.642Z,77.25
2022-12-08T21:01:54.156Z,77.43
2022-12-08T21:06:56.104Z,77.59
2022-12-08T21:11:57.775Z,77.28
2022-12-08T21:16:59.458Z,77.20
2022-12-08T21:22:01.240Z,76.99
2022-12-08T21:27:02.979Z,76.89
2022-12-08T21:32:04.801Z,76.96
2022-12-08T21:37:06.450Z,77.55
2022-12-08T21:42:32.317Z,77.28
2022-12-08T21:47:36.115Z,77.21
2022-12-08T21:52:39.433Z,77.53
2022-12-08T21:57:41.350Z,76.78
2022-12-08T22:02:43.677Z,77.43
2022-12-08T22:07:45.658Z,76.50
2022-12-08T22:12:47.303Z,77.43
2022-12-08T22:17:48.994Z,77.11
2022-12-08T22:22:50.749Z,77.31
2022-12-08T22:27:52.441Z,76.93
2022-12-08T22:32:54.224Z,77.11
2022-12-08T22:37:55.911Z,76.90
2022-12-08T22:42:57.737Z,77.29
2022-12-08T22:47:59.796Z,77.10
2022-12-08T22:53:01.476Z,77.01
2022-12-08T22:58:03.038Z,77.43
2022-12-08T23:03:05.963Z,77.89
2022-12-08T23:08:08.627Z,77.29
2022-12-08T23:13:11.258Z,77.98
2022-12-08T23:18:19.254Z,77.61
2022-12-08T23:23:21.698Z,77.79
2022-12-08T23:34:39.656Z,78.09
2022-12-08T23:39:41.657Z,77.96
2022-12-08T23:44:43.398Z,78.22
2022-12-08T23:49:45.245Z,77.47
2022-12-08T23:54:50.295Z,77.21
2022-12-08T23:59:51.888Z,77.40
